sensor_id;sensor_type;location;lat;lon;timestamp;P1;durP1;ratioP1;P2;durP2;ratioP2
59555;SDS011;45374;52.746;6.304;2023-03-14T00:01:51;20.65;;;4.80;;
59555;SDS011;45374;52.746;6.304;2023-03-14T00:04:17;23.58;;;4.15;;
59555;SDS011;45374;52.746;6.304;2023-03-14T00:06:42;21.45;;;4.57;;
59555;SDS011;45374;52.746;6.304;2023-03-14T00:09:08;25.77;;;5.15;;
59555;SDS011;45374;52.746;6.304;2023-03-14T00:11:33;20.50;;;4.15;;
59555;SDS011;45374;52.746;6.304;2023-03-14T00:13:59;32.88;;;5.00;;
59555;SDS011;45374;52.746;6.304;2023-03-14T00:16:25;26.88;;;5.00;;
59555;SDS011;45374;52.746;6.304;2023-03-14T00:18:51;27.35;;;5.15;;
59555;SDS011;45374;52.746;6.304;2023-03-14T00:21:17;28.23;;;4.85;;
59555;SDS011;45374;52.746;6.304;2023-03-14T00:23:43;30.20;;;5.13;;
59555;SDS011;45374;52.746;6.304;2023-03-14T00:26:13;29.15;;;4.63;;
59555;SDS011;45374;52.746;6.304;2023-03-14T00:28:41;22.27;;;4.25;;
59555;SDS011;45374;52.746;6.304;2023-03-14T00:31:08;26.27;;;5.07;;
59555;SDS011;45374;52.746;6.304;2023-03-14T00:33:35;26.38;;;5.22;;
59555;SDS011;45374;52.746;6.304;2023-03-14T00:36:02;30.67;;;4.50;;
59555;SDS011;45374;52.746;6.304;2023-03-14T00:38:30;23.65;;;4.70;;
59555;SDS011;45374;52.746;6.304;2023-03-14T00:40:57;23.10;;;5.20;;
59555;SDS011;45374;52.746;6.304;2023-03-14T00:43:23;25.30;;;5.00;;
59555;SDS011;45374;52.746;6.304;2023-03-14T00:45:50;27.27;;;4.95;;
59555;SDS011;45374;52.746;6.304;2023-03-14T00:48:17;29.38;;;5.50;;
59555;SDS011;45374;52.746;6.304;2023-03-14T00:50:44;23.67;;;5.47;;
59555;SDS011;45374;52.746;6.304;2023-03-14T00:53:10;27.95;;;5.47;;
59555;SDS011;45374;52.746;6.304;2023-03-14T00:55:37;23.20;;;6.05;;
59555;SDS011;45374;52.746;6.304;2023-03-14T00:58:03;22.70;;;5.32;;
59555;SDS011;45374;52.746;6.304;2023-03-14T01:00:28;22.85;;;6.00;;
59555;SDS011;45374;52.746;6.304;2023-03-14T01:02:54;21.55;;;6.43;;
59555;SDS011;45374;52.746;6.304;2023-03-14T01:05:19;23.35;;;6.72;;
59555;SDS011;45374;52.746;6.304;2023-03-14T01:07:47;22.63;;;6.32;;
59555;SDS011;45374;52.746;6.304;2023-03-14T01:10:12;21.05;;;6.75;;
59555;SDS011;45374;52.746;6.304;2023-03-14T01:12:38;25.77;;;7.30;;
59555;SDS011;45374;52.746;6.304;2023-03-14T01:15:04;24.00;;;6.35;;
59555;SDS011;45374;52.746;6.304;2023-03-14T01:17:30;26.02;;;6.28;;
59555;SDS011;45374;52.746;6.304;2023-03-14T01:19:55;23.27;;;6.22;;
59555;SDS011;45374;52.746;6.304;2023-03-14T01:22:21;24.88;;;6.20;;
59555;SDS011;45374;52.746;6.304;2023-03-14T01:24:46;28.80;;;7.18;;
59555;SDS011;45374;52.746;6.304;2023-03-14T01:27:12;22.35;;;6.10;;
59555;SDS011;45374;52.746;6.304;2023-03-14T01:29:38;22.00;;;6.05;;
59555;SDS011;45374;52.746;6.304;2023-03-14T01:32:03;29.88;;;7.20;;
59555;SDS011;45374;52.746;6.304;2023-03-14T01:34:29;23.60;;;6.35;;
59555;SDS011;45374;52.746;6.304;2023-03-14T01:36:55;30.70;;;7.15;;
59555;SDS011;45374;52.746;6.304;2023-03-14T01:39:20;15.25;;;5.45;;
59555;SDS011;45374;52.746;6.304;2023-03-14T01:41:46;26.98;;;6.00;;
59555;SDS011;45374;52.746;6.304;2023-03-14T01:44:11;26.90;;;5.53;;
59555;SDS011;45374;52.746;6.304;2023-03-14T01:46:39;19.77;;;5.10;;
59555;SDS011;45374;52.746;6.304;2023-03-14T01:51:56;21.33;;;5.68;;
59555;SDS011;45374;52.746;6.304;2023-03-14T01:57:12;25.60;;;6.03;;
59555;SDS011;45374;52.746;6.304;2023-03-14T02:00:07;24.30;;;5.15;;
59555;SDS011;45374;52.746;6.304;2023-03-14T02:02:58;20.95;;;5.40;;
59555;SDS011;45374;52.746;6.304;2023-03-14T02:05:37;21.67;;;6.05;;
59555;SDS011;45374;52.746;6.304;2023-03-14T02:08:07;23.45;;;5.47;;
59555;SDS011;45374;52.746;6.304;2023-03-14T02:10:41;21.95;;;5.78;;
59555;SDS011;45374;52.746;6.304;2023-03-14T02:13:09;17.95;;;5.95;;
59555;SDS011;45374;52.746;6.304;2023-03-14T02:15:36;27.73;;;5.88;;
59555;SDS011;45374;52.746;6.304;2023-03-14T02:18:02;26.95;;;6.32;;
59555;SDS011;45374;52.746;6.304;2023-03-14T02:23:48;21.27;;;5.90;;
59555;SDS011;45374;52.746;6.304;2023-03-14T02:28:49;19.05;;;4.82;;
59555;SDS011;45374;52.746;6.304;2023-03-14T02:31:15;22.13;;;5.30;;
59555;SDS011;45374;52.746;6.304;2023-03-14T02:33:41;20.67;;;6.05;;
59555;SDS011;45374;52.746;6.304;2023-03-14T02:36:09;22.08;;;4.93;;
59555;SDS011;45374;52.746;6.304;2023-03-14T02:38:41;17.35;;;4.88;;
59555;SDS011;45374;52.746;6.304;2023-03-14T02:41:16;23.60;;;5.30;;
59555;SDS011;45374;52.746;6.304;2023-03-14T02:43:42;16.27;;;5.28;;
59555;SDS011;45374;52.746;6.304;2023-03-14T02:46:09;15.35;;;4.40;;
59555;SDS011;45374;52.746;6.304;2023-03-14T02:48:45;18.30;;;5.38;;
59555;SDS011;45374;52.746;6.304;2023-03-14T02:51:15;14.32;;;4.90;;
59555;SDS011;45374;52.746;6.304;2023-03-14T02:53:41;13.68;;;4.55;;
59555;SDS011;45374;52.746;6.304;2023-03-14T02:56:07;16.60;;;4.63;;
59555;SDS011;45374;52.746;6.304;2023-03-14T02:58:33;17.65;;;5.13;;
59555;SDS011;45374;52.746;6.304;2023-03-14T03:00:59;14.98;;;4.47;;
59555;SDS011;45374;52.746;6.304;2023-03-14T03:03:26;15.32;;;4.65;;
59555;SDS011;45374;52.746;6.304;2023-03-14T03:05:52;12.95;;;4.95;;
59555;SDS011;45374;52.746;6.304;2023-03-14T03:08:19;12.75;;;4.20;;
59555;SDS011;45374;52.746;6.304;2023-03-14T03:10:47;13.98;;;4.30;;
59555;SDS011;45374;52.746;6.304;2023-03-14T03:13:13;13.02;;;5.05;;
59555;SDS011;45374;52.746;6.304;2023-03-14T03:15:38;16.65;;;5.60;;
59555;SDS011;45374;52.746;6.304;2023-03-14T03:18:05;16.23;;;5.22;;
59555;SDS011;45374;52.746;6.304;2023-03-14T03:20:31;16.98;;;5.55;;
59555;SDS011;45374;52.746;6.304;2023-03-14T03:22:57;18.77;;;5.45;;
59555;SDS011;45374;52.746;6.304;2023-03-14T03:25:24;18.92;;;6.22;;
59555;SDS011;45374;52.746;6.304;2023-03-14T03:27:49;21.52;;;6.18;;
59555;SDS011;45374;52.746;6.304;2023-03-14T03:30:15;25.08;;;6.25;;
59555;SDS011;45374;52.746;6.304;2023-03-14T03:32:41;22.27;;;6.30;;
59555;SDS011;45374;52.746;6.304;2023-03-14T03:35:06;22.85;;;7.72;;
59555;SDS011;45374;52.746;6.304;2023-03-14T03:37:32;15.85;;;6.07;;
59555;SDS011;45374;52.746;6.304;2023-03-14T03:39:58;24.13;;;6.07;;
59555;SDS011;45374;52.746;6.304;2023-03-14T03:42:25;18.10;;;6.57;;
59555;SDS011;45374;52.746;6.304;2023-03-14T03:44:52;20.80;;;5.60;;
59555;SDS011;45374;52.746;6.304;2023-03-14T03:47:17;26.50;;;6.20;;
59555;SDS011;45374;52.746;6.304;2023-03-14T03:49:43;26.08;;;5.30;;
59555;SDS011;45374;52.746;6.304;2023-03-14T03:52:08;18.35;;;4.85;;
59555;SDS011;45374;52.746;6.304;2023-03-14T03:54:34;15.05;;;4.32;;
59555;SDS011;45374;52.746;6.304;2023-03-14T03:57:00;17.60;;;4.75;;
59555;SDS011;45374;52.746;6.304;2023-03-14T03:59:26;17.98;;;4.25;;
59555;SDS011;45374;52.746;6.304;2023-03-14T04:01:51;17.55;;;4.20;;
59555;SDS011;45374;52.746;6.304;2023-03-14T04:04:17;17.23;;;4.60;;
59555;SDS011;45374;52.746;6.304;2023-03-14T04:06:42;15.88;;;4.85;;
59555;SDS011;45374;52.746;6.304;2023-03-14T04:09:08;16.98;;;4.50;;
59555;SDS011;45374;52.746;6.304;2023-03-14T04:11:35;20.00;;;4.97;;
59555;SDS011;45374;52.746;6.304;2023-03-14T04:14:00;17.98;;;5.47;;
59555;SDS011;45374;52.746;6.304;2023-03-14T04:16:26;20.85;;;5.53;;
59555;SDS011;45374;52.746;6.304;2023-03-14T04:18:52;17.92;;;4.88;;
59555;SDS011;45374;52.746;6.304;2023-03-14T04:21:18;14.77;;;5.10;;
59555;SDS011;45374;52.746;6.304;2023-03-14T04:23:43;22.33;;;5.15;;
59555;SDS011;45374;52.746;6.304;2023-03-14T04:26:10;17.50;;;5.45;;
59555;SDS011;45374;52.746;6.304;2023-03-14T04:28:35;17.40;;;5.10;;
59555;SDS011;45374;52.746;6.304;2023-03-14T04:31:08;16.60;;;5.70;;
59555;SDS011;45374;52.746;6.304;2023-03-14T04:33:34;20.67;;;5.28;;
59555;SDS011;45374;52.746;6.304;2023-03-14T04:36:01;20.33;;;5.55;;
59555;SDS011;45374;52.746;6.304;2023-03-14T04:38:26;18.90;;;5.38;;
59555;SDS011;45374;52.746;6.304;2023-03-14T04:40:52;20.45;;;5.82;;
59555;SDS011;45374;52.746;6.304;2023-03-14T04:43:18;16.40;;;5.90;;
59555;SDS011;45374;52.746;6.304;2023-03-14T04:45:44;17.38;;;6.15;;
59555;SDS011;45374;52.746;6.304;2023-03-14T04:48:10;14.68;;;5.63;;
59555;SDS011;45374;52.746;6.304;2023-03-14T04:50:35;19.55;;;5.68;;
59555;SDS011;45374;52.746;6.304;2023-03-14T04:53:01;15.77;;;6.10;;
59555;SDS011;45374;52.746;6.304;2023-03-14T04:55:26;16.17;;;5.88;;
59555;SDS011;45374;52.746;6.304;2023-03-14T04:57:52;13.77;;;5.13;;
59555;SDS011;45374;52.746;6.304;2023-03-14T05:00:17;18.73;;;6.40;;
59555;SDS011;45374;52.746;6.304;2023-03-14T05:02:43;14.23;;;5.43;;
59555;SDS011;45374;52.746;6.304;2023-03-14T05:05:09;17.02;;;5.65;;
59555;SDS011;45374;52.746;6.304;2023-03-14T05:07:35;17.15;;;5.68;;
59555;SDS011;45374;52.746;6.304;2023-03-14T05:10:01;16.90;;;5.90;;
59555;SDS011;45374;52.746;6.304;2023-03-14T05:12:26;14.60;;;6.03;;
59555;SDS011;45374;52.746;6.304;2023-03-14T05:14:52;20.13;;;5.82;;
59555;SDS011;45374;52.746;6.304;2023-03-14T05:17:17;19.13;;;5.50;;
59555;SDS011;45374;52.746;6.304;2023-03-14T05:19:43;13.05;;;5.25;;
59555;SDS011;45374;52.746;6.304;2023-03-14T05:22:09;20.55;;;5.88;;
59555;SDS011;45374;52.746;6.304;2023-03-14T05:24:35;15.35;;;5.68;;
59555;SDS011;45374;52.746;6.304;2023-03-14T05:27:01;17.20;;;6.00;;
59555;SDS011;45374;52.746;6.304;2023-03-14T05:29:27;21.55;;;6.90;;
59555;SDS011;45374;52.746;6.304;2023-03-14T05:31:53;17.33;;;6.47;;
59555;SDS011;45374;52.746;6.304;2023-03-14T05:34:18;15.23;;;5.30;;
59555;SDS011;45374;52.746;6.304;2023-03-14T05:36:44;16.75;;;5.90;;
59555;SDS011;45374;52.746;6.304;2023-03-14T05:39:11;16.75;;;5.50;;
59555;SDS011;45374;52.746;6.304;2023-03-14T05:41:37;13.80;;;5.10;;
59555;SDS011;45374;52.746;6.304;2023-03-14T05:44:02;17.85;;;5.18;;
59555;SDS011;45374;52.746;6.304;2023-03-14T05:46:28;16.58;;;6.10;;
59555;SDS011;45374;52.746;6.304;2023-03-14T05:48:55;24.85;;;6.28;;
59555;SDS011;45374;52.746;6.304;2023-03-14T05:51:24;21.48;;;6.25;;
59555;SDS011;45374;52.746;6.304;2023-03-14T05:53:50;25.00;;;6.85;;
59555;SDS011;45374;52.746;6.304;2023-03-14T05:56:16;21.75;;;6.85;;
59555;SDS011;45374;52.746;6.304;2023-03-14T05:58:41;15.60;;;5.78;;
59555;SDS011;45374;52.746;6.304;2023-03-14T06:01:07;18.80;;;7.10;;
59555;SDS011;45374;52.746;6.304;2023-03-14T06:03:33;16.50;;;5.50;;
59555;SDS011;45374;52.746;6.304;2023-03-14T06:05:59;24.25;;;7.07;;
59555;SDS011;45374;52.746;6.304;2023-03-14T06:08:25;16.58;;;5.50;;
59555;SDS011;45374;52.746;6.304;2023-03-14T06:10:51;22.38;;;6.00;;
59555;SDS011;45374;52.746;6.304;2023-03-14T06:13:17;18.92;;;6.32;;
59555;SDS011;45374;52.746;6.304;2023-03-14T06:15:42;17.65;;;6.10;;
59555;SDS011;45374;52.746;6.304;2023-03-14T06:18:08;15.40;;;5.07;;
59555;SDS011;45374;52.746;6.304;2023-03-14T06:20:38;15.55;;;5.38;;
59555;SDS011;45374;52.746;6.304;2023-03-14T06:23:07;15.07;;;4.70;;
59555;SDS011;45374;52.746;6.304;2023-03-14T06:25:33;14.95;;;5.18;;
59555;SDS011;45374;52.746;6.304;2023-03-14T06:28:00;13.48;;;4.97;;
59555;SDS011;45374;52.746;6.304;2023-03-14T06:30:26;11.82;;;4.43;;
59555;SDS011;45374;52.746;6.304;2023-03-14T06:32:52;11.73;;;4.47;;
59555;SDS011;45374;52.746;6.304;2023-03-14T06:35:18;13.73;;;5.03;;
59555;SDS011;45374;52.746;6.304;2023-03-14T06:37:44;13.02;;;4.63;;
59555;SDS011;45374;52.746;6.304;2023-03-14T06:40:10;12.43;;;4.80;;
59555;SDS011;45374;52.746;6.304;2023-03-14T06:42:41;13.95;;;5.30;;
59555;SDS011;45374;52.746;6.304;2023-03-14T06:45:08;18.33;;;5.72;;
59555;SDS011;45374;52.746;6.304;2023-03-14T06:47:34;16.73;;;5.85;;
59555;SDS011;45374;52.746;6.304;2023-03-14T06:49:59;21.25;;;6.82;;
59555;SDS011;45374;52.746;6.304;2023-03-14T06:52:25;15.70;;;6.20;;
59555;SDS011;45374;52.746;6.304;2023-03-14T06:54:50;12.60;;;5.35;;
59555;SDS011;45374;52.746;6.304;2023-03-14T06:57:16;9.20;;;3.55;;
59555;SDS011;45374;52.746;6.304;2023-03-14T06:59:41;8.45;;;2.95;;
59555;SDS011;45374;52.746;6.304;2023-03-14T07:02:13;7.03;;;2.95;;
59555;SDS011;45374;52.746;6.304;2023-03-14T07:04:39;5.68;;;2.83;;
59555;SDS011;45374;52.746;6.304;2023-03-14T07:07:04;8.32;;;2.20;;
59555;SDS011;45374;52.746;6.304;2023-03-14T07:09:31;9.40;;;3.70;;
59555;SDS011;45374;52.746;6.304;2023-03-14T07:11:57;8.07;;;2.65;;
59555;SDS011;45374;52.746;6.304;2023-03-14T07:14:22;6.13;;;2.58;;
59555;SDS011;45374;52.746;6.304;2023-03-14T07:16:48;5.57;;;1.85;;
59555;SDS011;45374;52.746;6.304;2023-03-14T07:19:14;4.53;;;1.70;;
59555;SDS011;45374;52.746;6.304;2023-03-14T07:21:39;6.47;;;1.80;;
59555;SDS011;45374;52.746;6.304;2023-03-14T07:24:05;3.63;;;1.17;;
59555;SDS011;45374;52.746;6.304;2023-03-14T07:26:30;3.08;;;0.98;;
59555;SDS011;45374;52.746;6.304;2023-03-14T07:28:56;4.78;;;0.88;;
59555;SDS011;45374;52.746;6.304;2023-03-14T07:31:22;4.65;;;0.90;;
59555;SDS011;45374;52.746;6.304;2023-03-14T07:33:47;6.57;;;1.00;;
59555;SDS011;45374;52.746;6.304;2023-03-14T07:36:13;6.25;;;1.13;;
59555;SDS011;45374;52.746;6.304;2023-03-14T07:38:38;3.97;;;0.90;;
59555;SDS011;45374;52.746;6.304;2023-03-14T07:41:05;5.78;;;1.25;;
59555;SDS011;45374;52.746;6.304;2023-03-14T07:43:35;9.05;;;1.00;;
59555;SDS011;45374;52.746;6.304;2023-03-14T07:46:01;8.18;;;1.27;;
59555;SDS011;45374;52.746;6.304;2023-03-14T07:48:26;3.03;;;0.55;;
59555;SDS011;45374;52.746;6.304;2023-03-14T07:50:52;3.97;;;0.80;;
59555;SDS011;45374;52.746;6.304;2023-03-14T07:53:19;3.53;;;0.80;;
59555;SDS011;45374;52.746;6.304;2023-03-14T07:55:46;4.00;;;0.80;;
59555;SDS011;45374;52.746;6.304;2023-03-14T07:58:14;8.57;;;0.70;;
59555;SDS011;45374;52.746;6.304;2023-03-14T08:00:40;3.60;;;0.65;;
59555;SDS011;45374;52.746;6.304;2023-03-14T08:03:05;3.08;;;0.60;;
59555;SDS011;45374;52.746;6.304;2023-03-14T08:05:33;3.38;;;0.73;;
59555;SDS011;45374;52.746;6.304;2023-03-14T08:08:02;4.53;;;0.75;;
59555;SDS011;45374;52.746;6.304;2023-03-14T08:10:29;4.00;;;1.65;;
59555;SDS011;45374;52.746;6.304;2023-03-14T08:12:55;3.05;;;0.70;;
59555;SDS011;45374;52.746;6.304;2023-03-14T08:15:23;3.90;;;0.55;;
59555;SDS011;45374;52.746;6.304;2023-03-14T08:17:51;2.50;;;0.82;;
59555;SDS011;45374;52.746;6.304;2023-03-14T08:20:20;1.13;;;0.40;;
59555;SDS011;45374;52.746;6.304;2023-03-14T08:22:47;2.25;;;0.40;;
59555;SDS011;45374;52.746;6.304;2023-03-14T08:25:13;6.35;;;0.77;;
59555;SDS011;45374;52.746;6.304;2023-03-14T08:27:38;6.90;;;0.65;;
59555;SDS011;45374;52.746;6.304;2023-03-14T08:30:06;2.20;;;0.40;;
59555;SDS011;45374;52.746;6.304;2023-03-14T08:32:39;5.43;;;0.35;;
59555;SDS011;45374;52.746;6.304;2023-03-14T08:35:05;2.72;;;0.70;;
59555;SDS011;45374;52.746;6.304;2023-03-14T08:37:31;3.25;;;0.63;;
59555;SDS011;45374;52.746;6.304;2023-03-14T08:39:58;0.98;;;0.60;;
59555;SDS011;45374;52.746;6.304;2023-03-14T08:42:24;2.83;;;0.30;;
59555;SDS011;45374;52.746;6.304;2023-03-14T08:44:50;5.28;;;0.70;;
59555;SDS011;45374;52.746;6.304;2023-03-14T08:47:17;5.72;;;0.55;;
59555;SDS011;45374;52.746;6.304;2023-03-14T08:49:42;2.50;;;0.63;;
59555;SDS011;45374;52.746;6.304;2023-03-14T08:52:08;3.00;;;0.65;;
59555;SDS011;45374;52.746;6.304;2023-03-14T08:54:34;1.58;;;0.43;;
59555;SDS011;45374;52.746;6.304;2023-03-14T08:56:59;3.92;;;0.77;;
59555;SDS011;45374;52.746;6.304;2023-03-14T08:59:25;4.25;;;0.73;;
59555;SDS011;45374;52.746;6.304;2023-03-14T09:01:51;1.30;;;0.40;;
59555;SDS011;45374;52.746;6.304;2023-03-14T09:04:16;3.20;;;0.70;;
59555;SDS011;45374;52.746;6.304;2023-03-14T09:06:42;3.90;;;0.70;;
59555;SDS011;45374;52.746;6.304;2023-03-14T09:09:08;6.25;;;0.82;;
59555;SDS011;45374;52.746;6.304;2023-03-14T09:11:33;6.35;;;0.88;;
59555;SDS011;45374;52.746;6.304;2023-03-14T09:14:00;5.65;;;0.77;;
59555;SDS011;45374;52.746;6.304;2023-03-14T09:16:26;2.83;;;0.68;;
59555;SDS011;45374;52.746;6.304;2023-03-14T09:18:51;11.43;;;0.70;;
59555;SDS011;45374;52.746;6.304;2023-03-14T09:21:22;6.32;;;1.10;;
59555;SDS011;45374;52.746;6.304;2023-03-14T09:23:48;5.53;;;1.10;;
59555;SDS011;45374;52.746;6.304;2023-03-14T09:26:14;6.75;;;1.33;;
59555;SDS011;45374;52.746;6.304;2023-03-14T09:28:40;10.05;;;1.80;;
59555;SDS011;45374;52.746;6.304;2023-03-14T09:31:15;9.38;;;1.85;;
59555;SDS011;45374;52.746;6.304;2023-03-14T09:33:41;7.65;;;1.85;;
59555;SDS011;45374;52.746;6.304;2023-03-14T09:36:06;10.02;;;2.25;;
59555;SDS011;45374;52.746;6.304;2023-03-14T09:38:33;8.18;;;1.45;;
59555;SDS011;45374;52.746;6.304;2023-03-14T09:40:59;13.45;;;1.88;;
59555;SDS011;45374;52.746;6.304;2023-03-14T09:43:28;12.80;;;1.85;;
59555;SDS011;45374;52.746;6.304;2023-03-14T09:45:56;9.18;;;1.20;;
59555;SDS011;45374;52.746;6.304;2023-03-14T09:48:26;13.23;;;1.88;;
59555;SDS011;45374;52.746;6.304;2023-03-14T09:50:54;10.02;;;1.25;;
59555;SDS011;45374;52.746;6.304;2023-03-14T09:53:23;12.57;;;2.17;;
59555;SDS011;45374;52.746;6.304;2023-03-14T09:55:58;18.05;;;2.95;;
59555;SDS011;45374;52.746;6.304;2023-03-14T09:58:24;11.68;;;2.47;;
59555;SDS011;45374;52.746;6.304;2023-03-14T10:00:51;10.65;;;2.25;;
59555;SDS011;45374;52.746;6.304;2023-03-14T10:03:31;12.43;;;1.92;;
59555;SDS011;45374;52.746;6.304;2023-03-14T10:05:58;11.73;;;2.08;;
59555;SDS011;45374;52.746;6.304;2023-03-14T10:08:24;19.63;;;2.95;;
59555;SDS011;45374;52.746;6.304;2023-03-14T10:10:50;21.13;;;3.10;;
59555;SDS011;45374;52.746;6.304;2023-03-14T10:13:20;22.48;;;3.00;;
59555;SDS011;45374;52.746;6.304;2023-03-14T10:15:53;10.20;;;1.45;;
59555;SDS011;45374;52.746;6.304;2023-03-14T10:18:21;10.75;;;2.90;;
59555;SDS011;45374;52.746;6.304;2023-03-14T10:20:49;18.92;;;2.72;;
59555;SDS011;45374;52.746;6.304;2023-03-14T10:23:27;17.33;;;2.65;;
59555;SDS011;45374;52.746;6.304;2023-03-14T10:26:00;18.23;;;2.72;;
59555;SDS011;45374;52.746;6.304;2023-03-14T10:28:34;21.50;;;3.13;;
59555;SDS011;45374;52.746;6.304;2023-03-14T10:31:04;14.40;;;2.80;;
59555;SDS011;45374;52.746;6.304;2023-03-14T10:33:32;18.15;;;3.15;;
59555;SDS011;45374;52.746;6.304;2023-03-14T10:36:03;20.65;;;3.55;;
59555;SDS011;45374;52.746;6.304;2023-03-14T10:38:39;22.08;;;2.53;;
59555;SDS011;45374;52.746;6.304;2023-03-14T10:41:26;19.25;;;3.85;;
59555;SDS011;45374;52.746;6.304;2023-03-14T10:43:56;17.23;;;3.38;;
59555;SDS011;45374;52.746;6.304;2023-03-14T10:46:23;10.70;;;2.58;;
59555;SDS011;45374;52.746;6.304;2023-03-14T10:48:51;19.60;;;3.83;;
59555;SDS011;45374;52.746;6.304;2023-03-14T10:51:28;12.55;;;2.30;;
59555;SDS011;45374;52.746;6.304;2023-03-14T10:54:00;16.38;;;3.63;;
59555;SDS011;45374;52.746;6.304;2023-03-14T10:56:26;17.15;;;2.67;;
59555;SDS011;45374;52.746;6.304;2023-03-14T10:58:53;15.70;;;2.58;;
59555;SDS011;45374;52.746;6.304;2023-03-14T11:04:21;18.65;;;3.42;;
59555;SDS011;45374;52.746;6.304;2023-03-14T11:09:45;19.50;;;3.03;;
59555;SDS011;45374;52.746;6.304;2023-03-14T11:15:41;12.50;;;2.00;;
59555;SDS011;45374;52.746;6.304;2023-03-14T11:21:20;12.45;;;2.42;;
59555;SDS011;45374;52.746;6.304;2023-03-14T11:32:34;13.10;;;2.38;;
59555;SDS011;45374;52.746;6.304;2023-03-14T11:37:59;9.70;;;1.52;;
59555;SDS011;45374;52.746;6.304;2023-03-14T11:40:30;13.63;;;1.50;;
59555;SDS011;45374;52.746;6.304;2023-03-14T11:45:35;13.63;;;1.60;;
59555;SDS011;45374;52.746;6.304;2023-03-14T11:50:44;10.77;;;1.50;;
59555;SDS011;45374;52.746;6.304;2023-03-14T11:53:18;11.05;;;2.35;;
59555;SDS011;45374;52.746;6.304;2023-03-14T11:55:47;9.15;;;1.98;;
59555;SDS011;45374;52.746;6.304;2023-03-14T12:00:40;7.70;;;1.52;;
59555;SDS011;45374;52.746;6.304;2023-03-14T12:11:08;4.18;;;1.20;;
59555;SDS011;45374;52.746;6.304;2023-03-14T12:13:48;5.97;;;1.33;;
59555;SDS011;45374;52.746;6.304;2023-03-14T12:18:48;5.63;;;1.17;;
59555;SDS011;45374;52.746;6.304;2023-03-14T12:21:15;5.88;;;1.30;;
59555;SDS011;45374;52.746;6.304;2023-03-14T12:23:51;5.00;;;1.05;;
59555;SDS011;45374;52.746;6.304;2023-03-14T12:26:26;7.95;;;1.13;;
59555;SDS011;45374;52.746;6.304;2023-03-14T12:29:14;7.20;;;1.13;;
59555;SDS011;45374;52.746;6.304;2023-03-14T12:39:31;4.93;;;1.13;;
59555;SDS011;45374;52.746;6.304;2023-03-14T12:47:32;7.20;;;1.40;;
59555;SDS011;45374;52.746;6.304;2023-03-14T12:50:16;5.15;;;0.80;;
59555;SDS011;45374;52.746;6.304;2023-03-14T12:52:53;4.35;;;1.20;;
59555;SDS011;45374;52.746;6.304;2023-03-14T12:55:32;6.45;;;1.38;;
59555;SDS011;45374;52.746;6.304;2023-03-14T12:58:22;8.48;;;1.52;;
59555;SDS011;45374;52.746;6.304;2023-03-14T13:01:03;7.70;;;1.90;;
59555;SDS011;45374;52.746;6.304;2023-03-14T13:03:42;7.88;;;1.30;;
59555;SDS011;45374;52.746;6.304;2023-03-14T13:12:03;6.72;;;1.67;;
59555;SDS011;45374;52.746;6.304;2023-03-14T13:14:36;4.18;;;1.35;;
59555;SDS011;45374;52.746;6.304;2023-03-14T13:17:14;6.20;;;1.37;;
59555;SDS011;45374;52.746;6.304;2023-03-14T13:19:44;5.22;;;0.95;;
59555;SDS011;45374;52.746;6.304;2023-03-14T13:22:20;6.57;;;1.88;;
59555;SDS011;45374;52.746;6.304;2023-03-14T13:24:50;7.47;;;1.45;;
59555;SDS011;45374;52.746;6.304;2023-03-14T13:27:23;5.25;;;0.93;;
59555;SDS011;45374;52.746;6.304;2023-03-14T13:29:50;7.05;;;1.88;;
59555;SDS011;45374;52.746;6.304;2023-03-14T13:32:17;6.15;;;1.23;;
59555;SDS011;45374;52.746;6.304;2023-03-14T13:34:45;3.58;;;0.88;;
59555;SDS011;45374;52.746;6.304;2023-03-14T13:37:20;4.13;;;1.05;;
59555;SDS011;45374;52.746;6.304;2023-03-14T13:39:55;5.07;;;1.08;;
59555;SDS011;45374;52.746;6.304;2023-03-14T13:42:26;6.82;;;1.08;;
59555;SDS011;45374;52.746;6.304;2023-03-14T13:44:53;4.05;;;1.08;;
59555;SDS011;45374;52.746;6.304;2023-03-14T13:47:21;8.52;;;1.45;;
59555;SDS011;45374;52.746;6.304;2023-03-14T13:49:49;9.10;;;1.38;;
59555;SDS011;45374;52.746;6.304;2023-03-14T13:55:01;5.03;;;1.40;;
59555;SDS011;45374;52.746;6.304;2023-03-14T13:57:42;6.45;;;0.77;;
59555;SDS011;45374;52.746;6.304;2023-03-14T14:00:20;5.95;;;1.00;;
59555;SDS011;45374;52.746;6.304;2023-03-14T14:02:49;6.85;;;1.80;;
59555;SDS011;45374;52.746;6.304;2023-03-14T14:05:17;9.80;;;1.17;;
59555;SDS011;45374;52.746;6.304;2023-03-14T14:07:43;7.97;;;1.00;;
59555;SDS011;45374;52.746;6.304;2023-03-14T14:10:11;4.68;;;1.30;;
59555;SDS011;45374;52.746;6.304;2023-03-14T14:12:52;3.83;;;1.05;;
59555;SDS011;45374;52.746;6.304;2023-03-14T14:15:28;2.83;;;0.95;;
59555;SDS011;45374;52.746;6.304;2023-03-14T14:23:06;6.82;;;1.23;;
59555;SDS011;45374;52.746;6.304;2023-03-14T14:25:35;5.55;;;1.38;;
59555;SDS011;45374;52.746;6.304;2023-03-14T14:28:24;3.25;;;0.63;;
59555;SDS011;45374;52.746;6.304;2023-03-14T14:33:44;11.25;;;1.42;;
59555;SDS011;45374;52.746;6.304;2023-03-14T14:36:36;8.63;;;0.93;;
59555;SDS011;45374;52.746;6.304;2023-03-14T14:39:06;4.25;;;0.90;;
59555;SDS011;45374;52.746;6.304;2023-03-14T14:41:55;5.25;;;1.30;;
59555;SDS011;45374;52.746;6.304;2023-03-14T14:44:27;5.70;;;1.05;;
59555;SDS011;45374;52.746;6.304;2023-03-14T14:46:55;7.10;;;1.30;;
59555;SDS011;45374;52.746;6.304;2023-03-14T14:49:21;5.97;;;1.42;;
59555;SDS011;45374;52.746;6.304;2023-03-14T14:51:59;5.50;;;1.40;;
59555;SDS011;45374;52.746;6.304;2023-03-14T14:54:33;4.25;;;0.90;;
59555;SDS011;45374;52.746;6.304;2023-03-14T14:57:04;6.07;;;1.00;;
59555;SDS011;45374;52.746;6.304;2023-03-14T14:59:31;3.80;;;0.80;;
59555;SDS011;45374;52.746;6.304;2023-03-14T15:01:59;5.75;;;1.17;;
59555;SDS011;45374;52.746;6.304;2023-03-14T15:04:26;3.17;;;0.77;;
59555;SDS011;45374;52.746;6.304;2023-03-14T15:06:54;6.97;;;1.17;;
59555;SDS011;45374;52.746;6.304;2023-03-14T15:09:22;3.95;;;1.20;;
59555;SDS011;45374;52.746;6.304;2023-03-14T15:11:49;6.72;;;1.00;;
59555;SDS011;45374;52.746;6.304;2023-03-14T15:14:14;5.53;;;1.00;;
59555;SDS011;45374;52.746;6.304;2023-03-14T15:16:40;4.70;;;0.80;;
59555;SDS011;45374;52.746;6.304;2023-03-14T15:19:10;4.75;;;0.82;;
59555;SDS011;45374;52.746;6.304;2023-03-14T15:21:44;5.00;;;0.90;;
59555;SDS011;45374;52.746;6.304;2023-03-14T15:24:10;8.52;;;1.55;;
59555;SDS011;45374;52.746;6.304;2023-03-14T15:29:04;9.02;;;1.52;;
59555;SDS011;45374;52.746;6.304;2023-03-14T15:31:33;6.72;;;2.05;;
59555;SDS011;45374;52.746;6.304;2023-03-14T15:33:59;6.45;;;1.55;;
59555;SDS011;45374;52.746;6.304;2023-03-14T15:36:26;10.73;;;1.20;;
59555;SDS011;45374;52.746;6.304;2023-03-14T15:38:54;9.20;;;1.75;;
59555;SDS011;45374;52.746;6.304;2023-03-14T15:41:20;14.88;;;1.88;;
59555;SDS011;45374;52.746;6.304;2023-03-14T15:43:47;6.45;;;0.90;;
59555;SDS011;45374;52.746;6.304;2023-03-14T15:46:13;7.35;;;1.05;;
59555;SDS011;45374;52.746;6.304;2023-03-14T15:48:39;7.88;;;0.82;;
59555;SDS011;45374;52.746;6.304;2023-03-14T15:51:05;9.30;;;1.52;;
59555;SDS011;45374;52.746;6.304;2023-03-14T15:53:32;7.05;;;1.63;;
59555;SDS011;45374;52.746;6.304;2023-03-14T15:55:57;10.68;;;1.25;;
59555;SDS011;45374;52.746;6.304;2023-03-14T15:58:23;12.23;;;1.40;;
59555;SDS011;45374;52.746;6.304;2023-03-14T16:00:49;7.55;;;1.48;;
59555;SDS011;45374;52.746;6.304;2023-03-14T16:03:15;2.50;;;0.75;;
59555;SDS011;45374;52.746;6.304;2023-03-14T16:05:41;6.60;;;1.80;;
59555;SDS011;45374;52.746;6.304;2023-03-14T16:08:07;4.80;;;1.30;;
59555;SDS011;45374;52.746;6.304;2023-03-14T16:10:32;12.90;;;2.45;;
59555;SDS011;45374;52.746;6.304;2023-03-14T16:12:58;7.25;;;2.45;;